createdAt,value
2022-08-07T00:00:54.590Z,9.90
2022-08-07T00:03:25.718Z,9.90
2022-08-07T00:05:56.207Z,9.90
2022-08-07T00:08:24.785Z,9.90
2022-08-07T00:10:57.643Z,9.90
2022-08-07T00:13:27.074Z,9.90
2022-08-07T00:15:57.130Z,9.80
2022-08-07T00:18:27.226Z,9.80
2022-08-07T00:20:57.573Z,9.80
2022-08-07T00:23:31.732Z,9.70
2022-08-07T00:26:13.316Z,9.70
2022-08-07T00:28:55.673Z,9.70
2022-08-07T00:31:37.838Z,9.60
2022-08-07T00:34:09.991Z,9.50
2022-08-07T00:36:43.012Z,9.50
2022-08-07T00:39:16.497Z,9.50
2022-08-07T00:42:02.332Z,9.40
2022-08-07T00:44:33.954Z,9.40
2022-08-07T00:47:03.891Z,9.40
2022-08-07T00:50:19.613Z,9.40
2022-08-07T00:52:23.291Z,9.40
2022-08-07T00:54:54.225Z,9.40
2022-08-07T00:57:25.855Z,9.30
2022-08-07T00:59:55.885Z,9.30
2022-08-07T01:02:28.392Z,9.20
2022-08-07T01:04:58.580Z,9.20
2022-08-07T01:07:29.312Z,9.20
2022-08-07T01:10:06.090Z,9.20
2022-08-07T01:12:43.969Z,9.20
2022-08-07T01:15:22.630Z,9.10
2022-08-07T01:18:06.609Z,9.10
2022-08-07T01:20:57.258Z,9.10
2022-08-07T01:23:35.446Z,9.10
2022-08-07T01:26:08.347Z,9.10
2022-08-07T01:28:45.826Z,9.00
2022-08-07T01:31:17.951Z,9.00
2022-08-07T01:33:55.927Z,9.00
2022-08-07T01:36:34.004Z,9.00
2022-08-07T01:39:11.845Z,8.90
2022-08-07T01:42:01.681Z,8.90
2022-08-07T01:44:36.826Z,8.80
2022-08-07T01:48:16.340Z,8.80
2022-08-07T01:49:54.794Z,8.80
2022-08-07T01:52:26.898Z,8.70
2022-08-07T01:54:59.000Z,8.70
2022-08-07T01:58:01.043Z,8.60
2022-08-07T02:00:28.643Z,8.60
2022-08-07T02:03:18.471Z,8.60
2022-08-07T02:05:59.868Z,8.60
2022-08-07T02:08:40.481Z,8.60
2022-08-07T02:12:03.055Z,8.50
2022-08-07T02:14:04.794Z,8.50
2022-08-07T02:16:36.732Z,8.50
2022-08-07T02:20:06.975Z,8.50
2022-08-07T02:21:58.832Z,8.50
2022-08-07T02:24:30.096Z,8.40
2022-08-07T02:27:02.504Z,8.40
2022-08-07T02:29:36.862Z,8.40
2022-08-07T02:32:12.449Z,8.40
2022-08-07T02:34:48.889Z,8.30
2022-08-07T02:37:22.999Z,8.30
2022-08-07T02:40:01.779Z,8.20
2022-08-07T02:42:43.737Z,8.20
2022-08-07T02:45:59.408Z,8.20
2022-08-07T02:48:05.318Z,8.10
2022-08-07T02:50:42.558Z,8.10
2022-08-07T02:53:16.183Z,8.00
2022-08-07T02:56:03.100Z,8.00
2022-08-07T02:58:39.883Z,7.90
2022-08-07T03:01:19.086Z,7.90
2022-08-07T03:04:12.447Z,7.90
2022-08-07T03:06:41.993Z,7.80
2022-08-07T03:09:14.815Z,7.80
2022-08-07T03:12:04.257Z,7.80
2022-08-07T03:14:37.994Z,7.80
2022-08-07T03:17:09.180Z,7.90
2022-08-07T03:19:39.286Z,7.80
2022-08-07T03:22:19.229Z,7.80
2022-08-07T03:24:48.616Z,7.80
2022-08-07T03:27:30.911Z,7.70
2022-08-07T03:30:08.650Z,7.70
2022-08-07T03:32:48.906Z,7.60
2022-08-07T03:35:26.243Z,7.60
2022-08-07T03:38:04.819Z,7.50
2022-08-07T03:40:36.302Z,7.50
2022-08-07T03:43:13.578Z,7.40
2022-08-07T03:45:48.724Z,7.40
2022-08-07T03:48:21.638Z,7.40
2022-08-07T03:50:56.302Z,7.40
2022-08-07T03:54:05.678Z,7.40
2022-08-07T03:56:33.011Z,7.40
2022-08-07T03:59:09.384Z,7.50
2022-08-07T04:01:45.461Z,7.50
2022-08-07T04:04:17.958Z,7.40
2022-08-07T04:06:51.024Z,7.40
2022-08-07T04:09:23.481Z,7.40
2022-08-07T04:12:23.805Z,7.40
2022-08-07T04:14:46.308Z,7.40
2022-08-07T04:17:20.937Z,7.40
2022-08-07T04:19:52.398Z,7.40
2022-08-07T04:22:28.919Z,7.50
2022-08-07T04:25:01.229Z,7.50
2022-08-07T04:27:35.429Z,7.50
2022-08-07T04:30:21.035Z,7.50
2022-08-07T04:33:07.613Z,7.60
2022-08-07T04:35:38.201Z,7.60
2022-08-07T04:38:13.304Z,7.60
2022-08-07T04:40:52.992Z,7.70
2022-08-07T04:44:13.003Z,7.70
2022-08-07T04:47:04.717Z,7.80
2022-08-07T04:49:58.135Z,7.80
2022-08-07T04:52:51.208Z,7.90
2022-08-07T04:58:14.423Z,8.10
2022-08-07T04:58:49.577Z,8.20
2022-08-07T05:01:22.331Z,8.80
2022-08-07T05:04:08.871Z,9.60
2022-08-07T05:06:54.371Z,10.50
2022-08-07T05:09:45.379Z,11.40
2022-08-07T05:12:27.443Z,12.10
2022-08-07T05:15:21.642Z,12.80
2022-08-07T05:17:58.038Z,13.40
2022-08-07T05:20:34.696Z,14.10
2022-08-07T05:23:15.351Z,14.60
2022-08-07T05:26:10.505Z,15.10
2022-08-07T05:28:36.575Z,15.50
2022-08-07T05:31:12.490Z,15.90
2022-08-07T05:33:51.335Z,16.30
2022-08-07T05:36:32.429Z,16.70
2022-08-07T05:40:05.003Z,17.00
2022-08-07T05:42:04.411Z,17.30
2022-08-07T05:44:46.393Z,17.60
2022-08-07T05:47:38.077Z,17.90
2022-08-07T05:50:12.035Z,18.20
2022-08-07T05:52:41.086Z,18.40
2022-08-07T05:55:11.421Z,18.60
2022-08-07T05:57:44.981Z,18.80
2022-08-07T06:00:16.356Z,18.90
2022-08-07T06:02:54.753Z,19.10
2022-08-07T06:05:28.293Z,19.30
2022-08-07T06:08:13.361Z,19.40
2022-08-07T06:10:54.841Z,19.40
2022-08-07T06:14:10.951Z,19.60
2022-08-07T06:16:16.024Z,19.70
2022-08-07T06:18:51.858Z,19.90
2022-08-07T06:22:16.444Z,20.00
2022-08-07T06:24:37.596Z,20.10
2022-08-07T06:27:04.784Z,20.20
2022-08-07T06:29:35.022Z,20.30
2022-08-07T06:32:08.643Z,20.50
2022-08-07T06:34:36.686Z,20.60
2022-08-07T06:37:09.172Z,20.70
2022-08-07T06:40:13.135Z,20.70
2022-08-07T06:42:37.313Z,20.80
2022-08-07T06:45:18.589Z,21.00
2022-08-07T06:47:58.790Z,21.10
2022-08-07T06:50:43.071Z,21.30
2022-08-07T06:53:49.186Z,21.40
2022-08-07T06:56:02.445Z,21.60
2022-08-07T06:58:37.251Z,21.70
2022-08-07T07:01:14.189Z,21.70
2022-08-07T07:03:49.879Z,21.80
2022-08-07T07:06:23.856Z,21.90
2022-08-07T07:08:54.448Z,22.00
2022-08-07T07:12:09.067Z,22.20
2022-08-07T07:14:14.243Z,22.10
2022-08-07T07:16:50.727Z,22.30
2022-08-07T07:19:55.122Z,22.40
2022-08-07T07:22:39.782Z,22.50
2022-08-07T07:26:31.041Z,22.40
2022-08-07T07:28:02.654Z,22.50
2022-08-07T07:30:40.009Z,22.50
2022-08-07T07:33:12.258Z,22.50
2022-08-07T07:36:04.493Z,22.70
2022-08-07T07:38:36.017Z,22.70
2022-08-07T07:41:09.477Z,22.70
2022-08-07T07:44:14.130Z,22.80
2022-08-07T07:46:55.361Z,23.00
2022-08-07T07:50:34.755Z,23.00
2022-08-07T07:52:22.125Z,22.50
2022-08-07T07:54:52.351Z,22.30
2022-08-07T07:57:44.036Z,22.00
2022-08-07T08:00:15.015Z,22.00
2022-08-07T08:03:05.241Z,22.10
2022-08-07T08:05:50.931Z,22.20
2022-08-07T08:08:35.290Z,22.40
2022-08-07T08:11:16.039Z,22.60
2022-08-07T08:13:54.521Z,22.90
2022-08-07T08:16:31.030Z,22.90
2022-08-07T08:19:17.706Z,23.00
2022-08-07T08:22:10.869Z,22.90
2022-08-07T08:25:09.332Z,22.80
2022-08-07T08:27:56.501Z,22.60
2022-08-07T08:30:34.395Z,22.90
2022-08-07T08:33:05.379Z,23.20
2022-08-07T08:35:47.241Z,23.30
2022-08-07T08:38:41.158Z,23.30
2022-08-07T08:41:14.345Z,23.40
2022-08-07T08:43:58.900Z,23.50
2022-08-07T08:46:38.367Z,23.80
2022-08-07T08:49:14.109Z,23.60
2022-08-07T08:52:14.420Z,23.70
2022-08-07T08:54:48.245Z,23.70
2022-08-07T08:57:30.668Z,23.50
2022-08-07T09:00:05.228Z,23.60
2022-08-07T09:02:42.650Z,23.70
2022-08-07T09:05:37.793Z,24.00
2022-08-07T09:08:28.654Z,23.70
2022-08-07T09:11:06.234Z,23.90
2022-08-07T09:13:45.501Z,24.00
2022-08-07T09:16:30.694Z,24.20
2022-08-07T09:19:51.866Z,24.20
2022-08-07T09:24:27.342Z,24.00
2022-08-07T09:25:17.563Z,24.00
2022-08-07T09:28:01.021Z,24.00
2022-08-07T09:30:51.674Z,24.20
2022-08-07T09:33:52.972Z,23.90
2022-08-07T09:36:35.661Z,23.70
2022-08-07T09:39:53.988Z,23.60
2022-08-07T09:42:23.229Z,23.70
2022-08-07T09:47:27.605Z,24.00
2022-08-07T09:48:11.894Z,24.00
2022-08-07T09:50:52.536Z,24.30
2022-08-07T09:53:23.434Z,24.70
2022-08-07T09:56:37.261Z,25.00
2022-08-07T09:59:29.451Z,24.90
2022-08-07T10:02:29.825Z,24.90
2022-08-07T10:05:29.640Z,25.00
2022-08-07T10:08:44.375Z,25.00
2022-08-07T10:12:01.394Z,25.00
2022-08-07T10:14:33.523Z,25.20
2022-08-07T10:17:14.489Z,25.10
2022-08-07T10:19:59.771Z,25.10
2022-08-07T10:22:50.983Z,24.80
2022-08-07T10:25:32.886Z,24.60
2022-08-07T10:28:49.674Z,24.10
2022-08-07T10:31:39.328Z,23.70
2022-08-07T10:34:31.744Z,23.60
2022-08-07T10:37:14.573Z,23.70
2022-08-07T10:40:05.355Z,24.00
2022-08-07T10:42:41.164Z,24.20
2022-08-07T10:45:44.587Z,24.30
2022-08-07T10:48:35.113Z,24.20
2022-08-07T10:51:16.919Z,24.40
2022-08-07T10:54:08.096Z,24.80
2022-08-07T10:56:47.403Z,25.00
2022-08-07T10:59:25.868Z,25.20
2022-08-07T11:02:11.813Z,25.50
2022-08-07T11:04:57.574Z,25.50
2022-08-07T11:07:59.128Z,25.80
2022-08-07T11:10:32.780Z,25.90
2022-08-07T11:13:05.005Z,25.90
2022-08-07T11:15:39.253Z,26.00
2022-08-07T11:18:15.522Z,26.20
2022-08-07T11:20:57.478Z,26.20
2022-08-07T11:23:38.585Z,25.90
2022-08-07T11:26:14.228Z,26.10
2022-08-07T11:28:51.364Z,26.30
2022-08-07T11:31:30.485Z,26.70
2022-08-07T11:34:12.362Z,26.90
2022-08-07T11:36:57.519Z,27.10
2022-08-07T11:40:01.663Z,27.40
2022-08-07T11:42:52.476Z,27.40
2022-08-07T11:45:35.312Z,27.20
2022-08-07T11:48:44.183Z,27.10
2022-08-07T11:51:44.632Z,27.00
2022-08-07T11:54:54.430Z,27.30
2022-08-07T11:57:59.915Z,27.30
2022-08-07T12:00:28.475Z,27.30
2022-08-07T12:03:44.805Z,27.30
2022-08-07T12:06:39.027Z,27.40
2022-08-07T12:09:16.192Z,27.50
2022-08-07T12:12:09.110Z,27.10
2022-08-07T12:14:52.700Z,27.30
2022-08-07T12:17:34.151Z,26.80
2022-08-07T12:20:18.589Z,26.40
2022-08-07T12:23:17.977Z,26.70
2022-08-07T12:26:28.973Z,27.00
2022-08-07T12:29:07.473Z,27.30
2022-08-07T12:32:02.054Z,27.20
2022-08-07T12:34:33.203Z,27.10
2022-08-07T12:37:08.166Z,27.50
2022-08-07T12:39:44.283Z,27.50
2022-08-07T12:42:27.979Z,27.60
2022-08-07T12:45:05.730Z,27.20
2022-08-07T12:47:44.157Z,27.50
2022-08-07T12:50:34.095Z,27.80
2022-08-07T12:53:18.150Z,28.00
2022-08-07T12:56:02.844Z,28.10
2022-08-07T12:58:37.605Z,27.80
2022-08-07T13:01:20.516Z,27.60
2022-08-07T13:04:04.526Z,27.30
2022-08-07T13:07:00.082Z,27.10
2022-08-07T13:10:19.926Z,26.80
2022-08-07T13:12:41.123Z,26.70
2022-08-07T13:15:23.598Z,26.70
2022-08-07T13:18:26.316Z,26.90
2022-08-07T13:21:02.828Z,27.20
2022-08-07T13:24:04.135Z,27.30
2022-08-07T13:26:35.209Z,26.90
2022-08-07T13:29:12.500Z,26.60
2022-08-07T13:31:55.068Z,26.60
2022-08-07T13:34:38.253Z,26.80
2022-08-07T13:37:20.603Z,26.50
2022-08-07T13:40:35.554Z,26.80
2022-08-07T13:42:59.382Z,27.00
2022-08-07T13:46:10.948Z,27.10
2022-08-07T13:48:33.758Z,26.90
2022-08-07T13:51:27.014Z,27.00
2022-08-07T13:54:00.756Z,27.10
2022-08-07T13:56:35.739Z,27.40
2022-08-07T13:59:13.528Z,27.80
2022-08-07T14:01:51.382Z,28.10
2022-08-07T14:04:36.149Z,28.30
2022-08-07T14:07:10.107Z,28.60
2022-08-07T14:10:03.849Z,28.90
2022-08-07T14:12:41.477Z,29.20
2022-08-07T14:15:18.731Z,29.00
2022-08-07T14:18:23.629Z,29.10
2022-08-07T14:20:48.929Z,29.20
2022-08-07T14:23:59.216Z,29.40
2022-08-07T14:26:29.670Z,29.30
2022-08-07T14:29:10.631Z,29.40
2022-08-07T14:31:57.790Z,29.20
2022-08-07T14:34:31.060Z,29.30
2022-08-07T14:37:01.647Z,29.40
2022-08-07T14:40:16.272Z,29.50
2022-08-07T14:42:31.347Z,29.40
2022-08-07T14:45:21.489Z,29.30
2022-08-07T14:47:58.655Z,29.30
2022-08-07T14:50:31.611Z,29.00
2022-08-07T14:53:09.882Z,29.10
2022-08-07T14:55:56.206Z,28.80
2022-08-07T14:58:34.953Z,28.70
2022-08-07T15:03:53.643Z,28.90
2022-08-07T15:06:27.163Z,28.70
2022-08-07T15:08:56.300Z,28.40
2022-08-07T15:11:52.833Z,28.50
2022-08-07T15:14:25.426Z,28.60
2022-08-07T15:17:01.999Z,28.60
2022-08-07T15:20:30.426Z,28.60
2022-08-07T15:25:24.216Z,28.40
2022-08-07T15:28:32.859Z,28.50
2022-08-07T15:33:52.084Z,28.50
2022-08-07T15:37:02.405Z,28.50
2022-08-07T15:39:14.324Z,28.10
2022-08-07T15:42:45.116Z,28.00
2022-08-07T15:44:52.531Z,28.10
2022-08-07T15:48:00.963Z,28.10
2022-08-07T15:50:37.620Z,28.10
2022-08-07T15:53:11.283Z,27.90
2022-08-07T15:55:53.635Z,27.80
2022-08-07T15:58:39.189Z,27.70
2022-08-07T16:01:20.227Z,27.60
2022-08-07T16:03:54.416Z,27.50
2022-08-07T16:06:31.214Z,27.40
2022-08-07T16:09:02.883Z,27.30
2022-08-07T16:12:00.099Z,27.20
2022-08-07T16:14:48.547Z,27.20
2022-08-07T16:18:02.701Z,27.20
2022-08-07T16:20:41.645Z,27.00
2022-08-07T16:23:53.986Z,26.80
2022-08-07T16:26:39.723Z,26.70
2022-08-07T16:30:11.187Z,26.60
2022-08-07T16:32:46.110Z,26.30
2022-08-07T16:35:58.780Z,25.70
2022-08-07T16:38:58.589Z,25.50
2022-08-07T16:41:41.653Z,25.50
2022-08-07T16:45:19.135Z,25.10
2022-08-07T16:48:04.519Z,24.90
2022-08-07T16:50:52.693Z,24.80
2022-08-07T16:54:09.002Z,24.70
2022-08-07T16:56:53.496Z,24.70
2022-08-07T16:59:46.598Z,24.60
2022-08-07T17:03:05.797Z,24.60
2022-08-07T17:06:28.470Z,24.50
2022-08-07T17:09:08.620Z,24.40
2022-08-07T17:12:05.107Z,24.30
2022-08-07T17:14:33.397Z,24.20
2022-08-07T17:17:06.100Z,24.20
2022-08-07T17:20:01.691Z,24.10
2022-08-07T17:22:37.659Z,24.00
2022-08-07T17:25:15.468Z,24.00
2022-08-07T17:27:56.837Z,23.90
2022-08-07T17:30:30.689Z,23.80
2022-08-07T17:34:09.107Z,23.70
2022-08-07T17:36:05.076Z,23.60
2022-08-07T17:38:52.300Z,23.50
2022-08-07T17:42:03.689Z,23.40
2022-08-07T17:44:33.714Z,23.40
2022-08-07T17:47:16.509Z,23.20
2022-08-07T17:49:54.207Z,23.10
2022-08-07T17:52:32.439Z,23.10
2022-08-07T17:55:08.973Z,23.00
2022-08-07T17:57:58.981Z,22.90
2022-08-07T18:00:49.071Z,22.80
2022-08-07T18:03:25.657Z,22.80
2022-08-07T18:06:01.591Z,22.70
2022-08-07T18:09:01.259Z,22.70
2022-08-07T18:12:16.598Z,22.60
2022-08-07T18:14:31.922Z,22.50
2022-08-07T18:18:44.595Z,22.50
2022-08-07T18:21:06.022Z,22.50
2022-08-07T18:23:07.067Z,22.40
2022-08-07T18:26:05.387Z,22.30
2022-08-07T18:28:59.109Z,22.20
2022-08-07T18:31:49.829Z,22.10
2022-08-07T18:34:37.004Z,22.10
2022-08-07T18:38:55.411Z,22.00
2022-08-07T18:40:44.045Z,21.90
2022-08-07T18:43:15.311Z,21.80
2022-08-07T18:46:25.421Z,21.70
2022-08-07T18:50:30.475Z,21.60
2022-08-07T18:52:25.439Z,21.50
2022-08-07T18:54:49.573Z,21.40
2022-08-07T18:57:31.447Z,21.20
2022-08-07T19:00:33.104Z,21.10
2022-08-07T19:03:15.883Z,20.90
2022-08-07T19:06:02.558Z,20.70
2022-08-07T19:08:46.626Z,20.60
2022-08-07T19:11:35.965Z,20.40
2022-08-07T19:14:19.993Z,20.20
2022-08-07T19:17:05.891Z,20.10
2022-08-07T19:19:51.801Z,19.90
2022-08-07T19:22:30.709Z,19.60
2022-08-07T19:25:06.338Z,19.40
2022-08-07T19:28:29.593Z,19.20
2022-08-07T19:31:03.675Z,19.10
2022-08-07T19:33:34.756Z,18.90
2022-08-07T19:36:04.833Z,18.70
2022-08-07T19:38:52.564Z,18.50
2022-08-07T19:41:44.094Z,18.40
2022-08-07T19:44:21.629Z,18.20
2022-08-07T19:46:57.996Z,18.00
2022-08-07T19:49:56.684Z,17.80
2022-08-07T19:52:22.578Z,17.60
2022-08-07T19:54:56.745Z,17.50
2022-08-07T19:58:01.028Z,17.40
2022-08-07T20:00:28.153Z,17.30
2022-08-07T20:03:04.102Z,17.10
2022-08-07T20:06:00.570Z,17.10
2022-08-07T20:08:30.133Z,16.90
2022-08-07T20:11:04.005Z,16.80
2022-08-07T20:13:45.035Z,16.60
2022-08-07T20:16:35.434Z,16.50
2022-08-07T20:19:10.088Z,16.40
2022-08-07T20:21:42.186Z,16.30
2022-08-07T20:24:20.638Z,16.20
2022-08-07T20:26:52.183Z,16.20
2022-08-07T20:29:47.792Z,16.10
2022-08-07T20:32:23.221Z,16.00
2022-08-07T20:34:57.537Z,15.90
2022-08-07T20:37:33.981Z,15.90
2022-08-07T20:40:33.541Z,15.80
2022-08-07T20:42:57.878Z,15.70
2022-08-07T20:45:32.571Z,15.60
2022-08-07T20:48:28.977Z,15.50
2022-08-07T20:51:02.066Z,15.40
2022-08-07T20:54:04.420Z,15.30
2022-08-07T20:56:27.600Z,15.30
2022-08-07T20:58:59.647Z,15.20
2022-08-07T21:01:45.419Z,15.10
2022-08-07T21:04:22.932Z,15.00
2022-08-07T21:06:56.953Z,14.90
2022-08-07T21:09:51.636Z,14.80
2022-08-07T21:12:26.034Z,14.80
2022-08-07T21:15:00.907Z,14.70
2022-08-07T21:18:01.875Z,14.50
2022-08-07T21:20:29.743Z,14.40
2022-08-07T21:23:08.155Z,14.20
2022-08-07T21:25:56.927Z,14.10
2022-08-07T21:28:49.821Z,14.00
2022-08-07T21:32:41.821Z,14.00
2022-08-07T21:34:32.930Z,13.90
2022-08-07T21:37:07.253Z,13.80
2022-08-07T21:39:51.605Z,13.70
2022-08-07T21:42:42.401Z,13.70
2022-08-07T21:46:03.479Z,13.60
2022-08-07T21:48:28.880Z,13.60
2022-08-07T21:51:19.888Z,13.50
2022-08-07T21:53:54.858Z,13.50
2022-08-07T21:56:39.877Z,13.40
2022-08-07T22:00:04.873Z,13.30
2022-08-07T22:02:38.419Z,13.20
2022-08-07T22:05:21.586Z,13.20
2022-08-07T22:08:04.853Z,13.10
2022-08-07T22:10:35.720Z,13.10
2022-08-07T22:13:09.164Z,13.00
2022-08-07T22:16:44.187Z,12.90
2022-08-07T22:18:40.920Z,12.80
2022-08-07T22:21:15.547Z,12.70
2022-08-07T22:23:48.415Z,12.60
2022-08-07T22:26:22.778Z,12.50
2022-08-07T22:28:56.093Z,12.40
2022-08-07T22:31:56.198Z,12.30
2022-08-07T22:34:28.855Z,12.30
2022-08-07T22:37:09.407Z,12.20
2022-08-07T22:39:52.685Z,12.10
2022-08-07T22:42:26.175Z,12.10
2022-08-07T22:45:02.427Z,12.00
2022-08-07T22:48:02.465Z,12.00
2022-08-07T22:50:57.849Z,12.00
2022-08-07T22:54:06.387Z,11.90
2022-08-07T22:56:42.229Z,11.80
2022-08-07T22:59:38.281Z,11.80
2022-08-07T23:02:34.490Z,11.70
2022-08-07T23:06:10.294Z,11.50
2022-08-07T23:08:46.805Z,11.50
2022-08-07T23:11:35.246Z,11.40
2022-08-07T23:14:30.566Z,11.40
2022-08-07T23:17:20.762Z,11.30
2022-08-07T23:20:12.225Z,11.20
2022-08-07T23:22:56.616Z,11.20
2022-08-07T23:25:42.361Z,11.10
2022-08-07T23:28:29.129Z,11.00
2022-08-07T23:31:42.751Z,11.00
2022-08-07T23:34:37.997Z,10.90
2022-08-07T23:37:31.700Z,10.80
2022-08-07T23:40:15.594Z,10.80
2022-08-07T23:42:55.922Z,10.80
2022-08-07T23:46:01.810Z,10.80
2022-08-07T23:48:47.144Z,10.80
2022-08-07T23:53:05.505Z,10.80
2022-08-07T23:54:19.463Z,10.80
2022-08-07T23:57:01.659Z,10.70
